Time,TemperatureF,DewpointF,PressureIn,WindDirection,WindDirectionDegrees,WindSpeedMPH,WindSpeedGustMPH,Humidity,HourlyPrecipIn,Conditions,Clouds,dailyrainin,SoftwareType,DateUTC
2013-03-19 00:00:00,56.5,55.9,29.85,North,0,0.0,0.0,98,0.00,CLR,FEW,0.00,WeatherDisplay:10.37,2013-03-19 04:00:00,
2013-03-19 00:05:00,56.7,56.1,29.85,North,0,0.0,0.0,98,0.00,CLR,FEW,0.00,WeatherDisplay:10.37,2013-03-19 04:05:00,
2013-03-19 00:07:00,56.7,56.1,29.85,North,0,0.0,0.0,98,0.00,CLR,FEW,0.00,WeatherDisplay:10.37,2013-03-19 04:07:00,
2013-03-19 00:12:00,56.8,56.3,29.85,North,0,0.0,0.0,98,0.00,CLR,FEW,0.00,WeatherDisplay:10.37,2013-03-19 04:12:00,
2013-03-19 00:15:00,56.8,56.3,29.83,North,0,0.0,0.0,98,0.00,CLR,FEW,0.00,WeatherDisplay:10.37,2013-03-19 04:15:00,
2013-03-19 00:20:00,57.2,56.6,29.83,North,0,0.0,0.0,98,0.00,CLR,FEW,0.00,WeatherDisplay:10.37,2013-03-19 04:20:00,
2013-03-19 00:25:00,57.6,57.0,29.83,North,0,0.0,0.0,98,0.00,CLR,FEW,0.00,WeatherDisplay:10.37,2013-03-19 04:25:00,
2013-03-19 00:30:00,57.7,57.2,29.85,North,0,0.0,0.0,98,0.00,CLR,FEW,0.00,WeatherDisplay:10.37,2013-03-19 04:30:00,
2013-03-19 00:35:00,58.3,57.7,29.85,North,0,0.0,0.0,98,0.08,RA,FEW,0.08,WeatherDisplay:10.37,2013-03-19 04:35:00,
2013-03-19 00:41:00,58.5,57.9,29.85,North,0,0.0,0.0,98,0.20,RA,FEW,0.20,WeatherDisplay:10.37,2013-03-19 04:41:00,
2013-03-19 00:47:00,58.3,57.7,29.88,North,0,0.0,0.0,98,0.28,RA,FEW,0.28,WeatherDisplay:10.37,2013-03-19 04:47:00,
2013-03-19 00:52:00,58.1,57.5,29.88,North,0,0.0,0.0,98,0.28,RA,FEW,0.28,WeatherDisplay:10.37,2013-03-19 04:52:00,
2013-03-19 00:57:00,57.9,57.4,29.88,North,0,0.0,0.0,98,0.28,,FEW,0.28,WeatherDisplay:10.37,2013-03-19 04:57:00,
2013-03-19 01:02:00,57.6,57.0,29.88,North,0,0.0,0.0,98,0.31,RA,FEW,0.31,WeatherDisplay:10.37,2013-03-19 05:02:00,
2013-03-19 01:07:00,57.6,57.0,29.88,North,0,0.0,0.0,98,0.31,RA,FEW,0.31,WeatherDisplay:10.37,2013-03-19 05:07:00,
2013-03-19 01:12:00,57.4,56.8,29.88,North,0,0.0,0.0,98,0.35,RA,FEW,0.35,WeatherDisplay:10.37,2013-03-19 05:12:00,
2013-03-19 01:18:00,57.2,56.6,29.88,North,0,0.0,0.0,98,0.35,,FEW,0.35,WeatherDisplay:10.37,2013-03-19 05:18:00,
2013-03-19 01:23:00,57.0,56.5,29.88,North,0,0.0,0.0,98,0.35,CLR,FEW,0.35,WeatherDisplay:10.37,2013-03-19 05:23:00,
2013-03-19 01:28:00,56.7,56.1,29.88,North,0,0.0,0.0,98,0.35,CLR,FEW,0.35,WeatherDisplay:10.37,2013-03-19 05:28:00,
2013-03-19 01:33:00,56.3,55.7,29.85,North,0,0.0,0.0,98,0.28,CLR,FEW,0.35,WeatherDisplay:10.37,2013-03-19 05:33:00,
2013-03-19 01:38:00,55.8,55.2,29.85,North,0,0.0,0.0,98,0.20,CLR,FEW,0.35,WeatherDisplay:10.37,2013-03-19 05:38:00,
2013-03-19 01:43:00,55.4,54.8,29.85,North,0,0.0,0.0,98,0.16,CLR,FEW,0.35,WeatherDisplay:10.37,2013-03-19 05:43:00,
2013-03-19 01:48:00,55.2,54.7,29.85,North,0,0.0,0.0,98,0.08,CLR,FEW,0.35,WeatherDisplay:10.37,2013-03-19 05:48:00,
2013-03-19 01:53:00,55.0,54.5,29.85,North,0,0.0,0.0,98,0.08,CLR,FEW,0.35,WeatherDisplay:10.37,2013-03-19 05:53:00,
2013-03-19 01:58:00,55.0,54.5,29.85,North,0,0.0,0.0,98,0.08,CLR,FEW,0.35,WeatherDisplay:10.37,2013-03-19 05:58:00,
2013-03-19 02:03:00,55.0,54.5,29.83,North,0,0.0,0.0,98,0.04,CLR,FEW,0.35,WeatherDisplay:10.37,2013-03-19 06:03:00,
2013-03-19 02:08:00,55.0,54.5,29.83,North,0,0.0,0.0,98,0.00,CLR,FEW,0.35,WeatherDisplay:10.37,2013-03-19 06:08:00,
2013-03-19 02:13:00,55.2,54.7,29.80,North,0,0.0,0.0,98,0.00,CLR,FEW,0.35,WeatherDisplay:10.37,2013-03-19 06:13:00,
2013-03-19 02:18:00,55.2,54.7,29.80,North,0,0.0,0.0,98,0.00,CLR,FEW,0.35,WeatherDisplay:10.37,2013-03-19 06:18:00,
2013-03-19 02:23:00,55.2,54.7,29.80,North,0,0.0,0.0,98,0.00,CLR,FEW,0.35,WeatherDisplay:10.37,2013-03-19 06:23:00,
2013-03-19 02:28:00,55.2,54.7,29.77,North,0,0.0,0.0,98,0.00,CLR,FEW,0.35,WeatherDisplay:10.37,2013-03-19 06:28:00,
2013-03-19 02:33:00,55.2,54.7,29.77,North,0,0.0,0.0,98,0.00,CLR,FEW,0.35,WeatherDisplay:10.37,2013-03-19 06:33:00,
2013-03-19 02:38:00,55.2,54.7,29.77,North,0,0.0,0.0,98,0.00,CLR,FEW,0.35,WeatherDisplay:10.37,2013-03-19 06:38:00,
2013-03-19 02:43:00,55.2,54.7,29.77,North,0,0.0,0.0,98,0.00,CLR,FEW,0.35,WeatherDisplay:10.37,2013-03-19 06:43:00,
2013-03-19 02:48:00,55.0,54.5,29.80,North,0,0.0,0.0,98,0.00,CLR,FEW,0.35,WeatherDisplay:10.37,2013-03-19 06:48:00,
2013-03-19 02:53:00,55.0,54.5,29.80,North,0,0.0,0.0,98,0.00,CLR,FEW,0.35,WeatherDisplay:10.37,2013-03-19 06:53:00,
2013-03-19 02:58:00,55.0,54.5,29.80,North,0,0.0,0.0,98,0.00,CLR,FEW,0.35,WeatherDisplay:10.37,2013-03-19 06:58:00,
2013-03-19 03:03:00,55.0,54.5,29.80,North,0,0.0,0.0,98,0.00,CLR,FEW,0.35,WeatherDisplay:10.37,2013-03-19 07:03:00,
2013-03-19 03:08:00,55.0,54.5,29.80,North,0,0.0,0.0,98,0.00,CLR,FEW,0.35,WeatherDisplay:10.37,2013-03-19 07:08:00,
2013-03-19 03:13:00,55.0,54.5,29.80,North,0,0.0,0.0,98,0.00,CLR,FEW,0.35,WeatherDisplay:10.37,2013-03-19 07:13:00,
2013-03-19 03:18:00,55.2,54.7,29.80,North,0,0.0,0.0,98,0.00,CLR,FEW,0.35,WeatherDisplay:10.37,2013-03-19 07:18:00,
2013-03-19 03:23:00,55.2,54.7,29.80,North,0,0.0,0.0,98,0.00,CLR,FEW,0.35,WeatherDisplay:10.37,2013-03-19 07:23:00,
2013-03-19 03:28:00,55.4,54.8,29.80,North,0,0.0,0.0,98,0.00,CLR,FEW,0.35,WeatherDisplay:10.37,2013-03-19 07:28:00,
2013-03-19 03:33:00,55.4,54.8,29.80,North,0,0.0,0.0,98,0.00,CLR,FEW,0.35,WeatherDisplay:10.37,2013-03-19 07:33:00,
2013-03-19 03:38:00,55.4,54.8,29.80,North,0,0.0,0.0,98,0.00,CLR,FEW,0.35,WeatherDisplay:10.37,2013-03-19 07:38:00,
2013-03-19 03:43:00,55.4,54.8,29.80,North,0,0.0,0.0,98,0.00,CLR,FEW,0.35,WeatherDisplay:10.37,2013-03-19 07:43:00,
2013-03-19 03:48:00,55.6,55.0,29.80,North,0,0.0,0.0,98,0.00,CLR,FEW,0.35,WeatherDisplay:10.37,2013-03-19 07:48:00,
2013-03-19 03:53:00,55.6,55.0,29.80,North,0,0.0,0.0,98,0.00,CLR,FEW,0.35,WeatherDisplay:10.37,2013-03-19 07:53:00,
2013-03-19 03:58:00,55.8,55.2,29.80,North,0,0.0,0.0,98,0.00,CLR,FEW,0.35,WeatherDisplay:10.37,2013-03-19 07:58:00,
2013-03-19 04:03:00,55.8,55.2,29.80,North,0,0.0,0.0,98,0.00,CLR,FEW,0.35,WeatherDisplay:10.37,2013-03-19 08:03:00,
2013-03-19 04:08:00,55.9,55.4,29.80,North,0,0.0,0.0,98,0.00,CLR,FEW,0.35,WeatherDisplay:10.37,2013-03-19 08:08:00,
2013-03-19 04:13:00,56.1,55.6,29.80,North,0,0.0,0.0,98,0.00,CLR,FEW,0.35,WeatherDisplay:10.37,2013-03-19 08:13:00,
2013-03-19 04:18:00,56.3,55.7,29.80,North,0,0.0,0.0,98,0.00,CLR,FEW,0.35,WeatherDisplay:10.37,2013-03-19 08:18:00,
2013-03-19 04:23:00,56.3,55.7,29.80,North,0,0.0,0.0,98,0.00,CLR,FEW,0.35,WeatherDisplay:10.37,2013-03-19 08:23:00,
2013-03-19 04:28:00,56.3,55.7,29.80,North,0,0.0,0.0,98,0.00,CLR,FEW,0.35,WeatherDisplay:10.37,2013-03-19 08:28:00,
2013-03-19 04:33:00,56.3,55.7,29.80,North,0,0.0,0.0,98,0.00,CLR,FEW,0.35,WeatherDisplay:10.37,2013-03-19 08:33:00,
2013-03-19 04:38:00,56.3,55.7,29.80,North,0,0.0,0.0,98,0.00,CLR,FEW,0.35,WeatherDisplay:10.37,2013-03-19 08:38:00,
2013-03-19 04:43:00,56.1,55.6,29.80,North,0,0.0,0.0,98,0.00,CLR,FEW,0.35,WeatherDisplay:10.37,2013-03-19 08:43:00,
2013-03-19 04:48:00,55.9,55.4,29.80,North,0,0.0,0.0,98,0.00,CLR,FEW,0.35,WeatherDisplay:10.37,2013-03-19 08:48:00,
2013-03-19 04:54:00,55.8,55.2,29.80,North,0,0.0,0.0,98,0.00,CLR,FEW,0.35,WeatherDisplay:10.37,2013-03-19 08:54:00,
2013-03-19 04:59:00,55.6,55.0,29.80,North,0,0.0,0.0,98,0.00,CLR,FEW,0.35,WeatherDisplay:10.37,2013-03-19 08:59:00,
2013-03-19 05:04:00,55.6,55.0,29.80,North,0,0.0,0.0,98,0.00,CLR,FEW,0.35,WeatherDisplay:10.37,2013-03-19 09:04:00,
2013-03-19 05:09:00,55.4,54.8,29.80,North,0,0.0,0.0,98,0.00,CLR,FEW,0.35,WeatherDisplay:10.37,2013-03-19 09:09:00,
2013-03-19 05:14:00,55.4,54.8,29.80,North,0,0.0,0.0,98,0.00,CLR,FEW,0.35,WeatherDisplay:10.37,2013-03-19 09:14:00,
2013-03-19 05:19:00,55.2,54.7,29.80,North,0,0.0,0.0,98,0.00,CLR,FEW,0.35,WeatherDisplay:10.37,2013-03-19 09:19:00,
2013-03-19 05:24:00,55.2,54.7,29.80,North,0,0.0,0.0,98,0.00,CLR,FEW,0.35,WeatherDisplay:10.37,2013-03-19 09:24:00,
2013-03-19 05:29:00,55.0,54.5,29.80,North,0,0.0,0.0,98,0.00,CLR,FEW,0.35,WeatherDisplay:10.37,2013-03-19 09:29:00,
2013-03-19 05:34:00,55.0,54.5,29.80,North,0,0.0,0.0,98,0.00,CLR,FEW,0.35,WeatherDisplay:10.37,2013-03-19 09:34:00,
2013-03-19 05:39:00,54.9,54.3,29.80,North,0,0.0,0.0,98,0.00,CLR,FEW,0.35,WeatherDisplay:10.37,2013-03-19 09:39:00,
2013-03-19 05:44:00,54.9,54.3,29.83,North,0,0.0,0.0,98,0.00,CLR,FEW,0.35,WeatherDisplay:10.37,2013-03-19 09:44:00,
2013-03-19 05:49:00,54.9,54.3,29.83,North,0,0.0,0.0,98,0.00,CLR,FEW,0.35,WeatherDisplay:10.37,2013-03-19 09:49:00,
2013-03-19 05:54:00,54.7,54.1,29.83,North,0,0.0,0.0,98,0.00,CLR,FEW,0.35,WeatherDisplay:10.37,2013-03-19 09:54:00,
2013-03-19 05:59:00,54.7,54.1,29.83,North,0,0.0,0.0,98,0.00,CLR,FEW,0.35,WeatherDisplay:10.37,2013-03-19 09:59:00,
2013-03-19 06:04:00,54.5,53.9,29.83,North,0,0.0,0.0,98,0.00,CLR,FEW,0.35,WeatherDisplay:10.37,2013-03-19 10:04:00,
2013-03-19 06:09:00,54.5,53.9,29.83,North,0,0.0,0.0,98,0.00,CLR,FEW,0.35,WeatherDisplay:10.37,2013-03-19 10:09:00,
2013-03-19 06:14:00,54.5,53.9,29.83,North,0,0.0,0.0,98,0.00,CLR,FEW,0.35,WeatherDisplay:10.37,2013-03-19 10:14:00,
2013-03-19 06:19:00,54.5,53.9,29.83,North,0,0.0,0.0,98,0.00,CLR,FEW,0.35,WeatherDisplay:10.37,2013-03-19 10:19:00,
2013-03-19 06:24:00,54.3,53.8,29.83,North,0,0.0,0.0,98,0.00,CLR,FEW,0.35,WeatherDisplay:10.37,2013-03-19 10:24:00,
2013-03-19 06:29:00,54.1,53.6,29.83,North,0,0.0,0.0,98,0.00,CLR,FEW,0.35,WeatherDisplay:10.37,2013-03-19 10:29:00,
2013-03-19 06:34:00,54.1,53.6,29.83,North,0,0.0,0.0,98,0.00,CLR,FEW,0.35,WeatherDisplay:10.37,2013-03-19 10:34:00,
2013-03-19 06:39:00,54.1,53.6,29.83,North,0,0.0,0.0,98,0.00,CLR,FEW,0.35,WeatherDisplay:10.37,2013-03-19 10:39:00,
2013-03-19 06:44:00,54.0,53.4,29.83,North,0,0.0,0.0,98,0.00,CLR,FEW,0.35,WeatherDisplay:10.37,2013-03-19 10:44:00,
2013-03-19 06:49:00,53.8,53.2,29.83,North,0,0.0,0.0,98,0.00,CLR,FEW,0.35,WeatherDisplay:10.37,2013-03-19 10:49:00,
2013-03-19 06:54:00,53.8,53.2,29.83,North,0,0.0,0.0,98,0.00,CLR,FEW,0.35,WeatherDisplay:10.37,2013-03-19 10:54:00,
2013-03-19 06:59:00,53.6,53.0,29.85,North,0,0.0,0.0,98,0.00,CLR,FEW,0.35,WeatherDisplay:10.37,2013-03-19 10:59:00,
2013-03-19 07:04:00,53.6,53.0,29.85,North,0,0.0,0.0,98,0.00,CLR,FEW,0.35,WeatherDisplay:10.37,2013-03-19 11:04:00,
2013-03-19 07:09:00,53.6,53.0,29.85,North,0,0.0,0.0,98,0.00,CLR,FEW,0.35,WeatherDisplay:10.37,2013-03-19 11:09:00,
2013-03-19 07:14:00,53.6,53.0,29.85,North,0,0.0,0.0,98,0.00,CLR,FEW,0.35,WeatherDisplay:10.37,2013-03-19 11:14:00,
2013-03-19 07:19:00,53.8,53.2,29.85,North,0,0.0,0.0,98,0.00,CLR,FEW,0.35,WeatherDisplay:10.37,2013-03-19 11:19:00,
2013-03-19 07:24:00,53.8,53.2,29.85,North,0,0.0,0.0,98,0.00,CLR,FEW,0.35,WeatherDisplay:10.37,2013-03-19 11:24:00,
2013-03-19 07:29:00,53.8,53.2,29.85,North,0,0.0,0.0,98,0.00,CLR,FEW,0.35,WeatherDisplay:10.37,2013-03-19 11:29:00,
2013-03-19 07:34:00,53.6,53.0,29.85,North,0,0.0,0.0,98,0.00,CLR,FEW,0.35,WeatherDisplay:10.37,2013-03-19 11:34:00,
2013-03-19 07:39:00,53.6,53.0,29.85,North,0,0.0,0.0,98,0.00,CLR,FEW,0.35,WeatherDisplay:10.37,2013-03-19 11:39:00,
2013-03-19 07:44:00,53.8,53.2,29.85,North,0,0.0,0.0,98,0.00,CLR,FEW,0.35,WeatherDisplay:10.37,2013-03-19 11:44:00,
2013-03-19 07:49:00,53.8,53.2,29.85,North,0,0.0,0.0,98,0.00,CLR,FEW,0.35,WeatherDisplay:10.37,2013-03-19 11:49:00,
2013-03-19 07:54:00,53.8,53.2,29.85,North,0,0.0,0.0,98,0.00,CLR,FEW,0.35,WeatherDisplay:10.37,2013-03-19 11:54:00,
2013-03-19 07:59:00,53.8,53.2,29.85,North,0,0.0,0.0,98,0.00,CLR,FEW,0.35,WeatherDisplay:10.37,2013-03-19 11:59:00,
2013-03-19 08:04:00,53.8,53.2,29.85,North,0,0.0,0.0,98,0.00,CLR,FEW,0.35,WeatherDisplay:10.37,2013-03-19 12:04:00,
2013-03-19 08:09:00,53.8,53.2,29.85,North,0,0.0,0.0,98,0.00,CLR,FEW,0.35,WeatherDisplay:10.37,2013-03-19 12:09:00,
2013-03-19 08:14:00,54.0,53.4,29.85,North,0,0.0,0.0,98,0.00,CLR,FEW,0.35,WeatherDisplay:10.37,2013-03-19 12:14:00,
2013-03-19 08:19:00,54.0,53.4,29.85,North,0,0.0,0.0,98,0.00,CLR,FEW,0.35,WeatherDisplay:10.37,2013-03-19 12:19:00,
2013-03-19 08:24:00,54.0,53.4,29.85,North,0,0.0,0.0,98,0.00,CLR,FEW,0.35,WeatherDisplay:10.37,2013-03-19 12:24:00,
2013-03-19 08:29:00,54.0,53.4,29.85,North,0,0.0,0.0,98,0.00,CLR,FEW,0.35,WeatherDisplay:10.37,2013-03-19 12:29:00,
2013-03-19 08:34:00,54.1,53.6,29.85,North,0,0.0,0.0,98,0.00,CLR,FEW,0.35,WeatherDisplay:10.37,2013-03-19 12:34:00,
2013-03-19 08:39:00,54.1,53.6,29.85,North,0,0.0,0.0,98,0.00,CLR,FEW,0.35,WeatherDisplay:10.37,2013-03-19 12:39:00,
2013-03-19 08:44:00,54.3,53.8,29.85,North,0,0.0,0.0,98,0.00,CLR,FEW,0.35,WeatherDisplay:10.37,2013-03-19 12:44:00,
2013-03-19 08:49:00,54.3,53.8,29.85,North,0,0.0,0.0,98,0.00,CLR,FEW,0.35,WeatherDisplay:10.37,2013-03-19 12:49:00,
2013-03-19 08:54:00,54.5,53.9,29.85,North,0,0.0,0.0,98,0.00,CLR,FEW,0.35,WeatherDisplay:10.37,2013-03-19 12:54:00,
2013-03-19 08:59:00,54.5,53.9,29.88,North,0,0.0,0.0,98,0.00,CLR,FEW,0.35,WeatherDisplay:10.37,2013-03-19 12:59:00,
2013-03-19 09:04:00,54.5,53.9,29.88,North,0,0.0,0.0,98,0.00,CLR,FEW,0.35,WeatherDisplay:10.37,2013-03-19 13:04:00,
2013-03-19 09:09:00,54.7,54.1,29.88,North,0,0.0,0.0,98,0.00,CLR,FEW,0.35,WeatherDisplay:10.37,2013-03-19 13:09:00,
2013-03-19 09:14:00,54.7,54.1,29.85,North,0,0.0,0.0,98,0.00,CLR,FEW,0.35,WeatherDisplay:10.37,2013-03-19 13:14:00,
2013-03-19 09:19:00,54.9,54.3,29.85,North,0,0.0,0.0,98,0.00,CLR,FEW,0.35,WeatherDisplay:10.37,2013-03-19 13:19:00,
2013-03-19 09:24:00,54.9,54.3,29.85,North,0,0.0,0.0,98,0.00,CLR,FEW,0.35,WeatherDisplay:10.37,2013-03-19 13:24:00,
2013-03-19 09:29:00,54.9,54.3,29.88,North,0,0.0,0.0,98,0.00,CLR,FEW,0.35,WeatherDisplay:10.37,2013-03-19 13:29:00,
2013-03-19 09:34:00,54.9,54.3,29.88,North,0,0.0,0.0,98,0.00,CLR,FEW,0.35,WeatherDisplay:10.37,2013-03-19 13:34:00,
2013-03-19 09:39:00,54.9,54.0,29.88,North,0,0.0,0.0,97,0.00,CLR,FEW,0.35,WeatherDisplay:10.37,2013-03-19 13:39:00,
2013-03-19 09:44:00,54.9,53.7,29.88,North,0,0.0,0.0,96,0.00,CLR,FEW,0.35,WeatherDisplay:10.37,2013-03-19 13:44:00,
2013-03-19 09:49:00,55.0,53.9,29.88,North,0,0.0,0.0,96,0.00,CLR,FEW,0.35,WeatherDisplay:10.37,2013-03-19 13:49:00,
2013-03-19 09:54:00,55.4,54.0,29.88,North,0,0.0,0.0,95,0.00,CLR,FEW,0.35,WeatherDisplay:10.37,2013-03-19 13:54:00,
2013-03-19 09:59:00,55.8,54.1,29.88,North,0,0.0,0.0,94,0.00,CLR,FEW,0.35,WeatherDisplay:10.37,2013-03-19 13:59:00,
2013-03-19 10:04:00,55.9,53.9,29.88,North,0,0.0,0.0,93,0.00,CLR,FEW,0.35,WeatherDisplay:10.37,2013-03-19 14:04:00,
2013-03-19 10:10:00,56.3,53.4,29.88,North,0,0.0,0.0,90,0.00,CLR,FEW,0.35,WeatherDisplay:10.37,2013-03-19 14:10:00,
2013-03-19 10:13:00,56.1,51.0,29.88,North,0,0.0,0.0,83,0.00,CLR,FEW,0.35,WeatherDisplay:10.37,2013-03-19 14:13:00,
2013-03-19 10:15:00,56.1,51.0,29.88,North,0,0.0,0.0,83,0.00,CLR,FEW,0.35,WeatherDisplay:10.37,2013-03-19 14:15:00,
2013-03-19 10:21:00,56.1,51.0,29.88,North,0,0.0,0.0,83,0.00,CLR,FEW,0.35,WeatherDisplay:10.37,2013-03-19 14:21:00,
2013-03-19 10:28:00,57.2,50.1,29.88,North,0,0.0,0.0,77,0.00,CLR,FEW,0.35,WeatherDisplay:10.37,2013-03-19 14:28:00,
2013-03-19 10:34:00,57.9,48.9,29.88,North,0,0.0,0.0,72,0.00,CLR,FEW,0.35,WeatherDisplay:10.37,2013-03-19 14:34:00,
2013-03-19 10:40:00,57.9,48.9,29.88,North,0,0.0,0.0,72,0.00,CLR,FEW,0.35,WeatherDisplay:10.37,2013-03-19 14:40:00,
2013-03-19 10:45:00,58.6,46.9,29.88,North,0,0.0,0.0,65,0.00,CLR,FEW,0.35,WeatherDisplay:10.37,2013-03-19 14:45:00,
2013-03-19 10:50:00,58.6,46.9,29.88,North,0,0.0,0.0,65,0.00,CLR,FEW,0.35,WeatherDisplay:10.37,2013-03-19 14:50:00,
2013-03-19 10:53:00,59.0,46.4,29.88,North,0,0.0,0.0,63,0.00,CLR,FEW,0.35,WeatherDisplay:10.37,2013-03-19 14:53:00,
2013-03-19 10:55:00,59.0,46.4,29.88,North,0,0.0,0.0,63,0.00,CLR,FEW,0.35,WeatherDisplay:10.37,2013-03-19 14:55:00,
2013-03-19 11:01:00,59.0,46.4,29.88,North,0,0.0,0.0,63,0.00,CLR,FEW,0.35,WeatherDisplay:10.37,2013-03-19 15:01:00,
2013-03-19 11:06:00,59.2,44.9,29.91,North,0,0.0,0.0,59,0.00,CLR,FEW,0.35,WeatherDisplay:10.37,2013-03-19 15:06:00,
2013-03-19 11:07:00,59.2,44.9,29.91,North,0,0.0,0.0,59,0.00,CLR,FEW,0.35,WeatherDisplay:10.37,2013-03-19 15:07:00,
2013-03-19 11:12:00,59.2,44.9,29.91,North,0,0.0,0.0,59,0.00,CLR,FEW,0.35,WeatherDisplay:10.37,2013-03-19 15:12:00,
2013-03-19 11:31:00,60.3,44.0,29.88,North,0,0.0,0.0,55,0.00,CLR,FEW,0.35,WeatherDisplay:10.37,2013-03-19 15:31:00,
2013-03-19 11:36:00,60.3,44.0,29.88,North,0,0.0,0.0,55,0.00,CLR,FEW,0.35,WeatherDisplay:10.37,2013-03-19 15:36:00,
2013-03-19 11:41:00,60.8,42.0,29.88,North,0,0.0,0.0,50,0.00,CLR,FEW,0.35,WeatherDisplay:10.37,2013-03-19 15:41:00,
2013-03-19 11:46:00,60.8,42.0,29.88,North,0,0.0,0.0,50,0.00,CLR,FEW,0.35,WeatherDisplay:10.37,2013-03-19 15:46:00,
2013-03-19 11:50:00,61.0,41.1,29.88,North,0,0.0,0.0,48,0.00,CLR,FEW,0.35,WeatherDisplay:10.37,2013-03-19 15:50:00,
2013-03-19 11:52:00,61.0,41.1,29.88,North,0,0.0,0.0,48,0.00,CLR,FEW,0.35,WeatherDisplay:10.37,2013-03-19 15:52:00,
2013-03-19 11:58:00,61.0,41.1,29.88,North,0,0.0,0.0,48,0.00,CLR,FEW,0.35,WeatherDisplay:10.37,2013-03-19 15:58:00,
2013-03-19 12:20:00,61.3,40.4,29.91,East,100,0.0,0.0,46,0.00,CLR,FEW,0.35,WeatherDisplay:10.37,2013-03-19 16:20:00,
2013-03-19 12:25:00,61.2,39.6,29.91,East,100,0.0,0.0,45,0.00,CLR,FEW,0.35,WeatherDisplay:10.37,2013-03-19 16:25:00,
2013-03-19 12:30:00,61.3,40.4,29.91,East,100,0.0,0.0,46,0.00,CLR,FEW,0.35,WeatherDisplay:10.37,2013-03-19 16:30:00,
2013-03-19 12:35:00,61.3,39.8,29.91,East,100,0.0,0.0,45,0.00,CLR,FEW,0.35,WeatherDisplay:10.37,2013-03-19 16:35:00,
2013-03-19 12:40:00,62.1,41.6,29.91,East,100,0.0,0.0,47,0.00,CLR,FEW,0.35,WeatherDisplay:10.37,2013-03-19 16:40:00,
2013-03-19 12:45:00,63.0,40.1,29.91,East,100,0.0,0.0,43,0.00,CLR,FEW,0.35,WeatherDisplay:10.37,2013-03-19 16:45:00,
2013-03-19 12:50:00,63.0,38.2,29.91,East,100,0.0,0.0,40,0.00,CLR,FEW,0.35,WeatherDisplay:10.37,2013-03-19 16:50:00,
2013-03-19 12:55:00,63.0,38.2,29.91,East,100,0.0,0.0,40,0.00,CLR,FEW,0.35,WeatherDisplay:10.37,2013-03-19 16:55:00,
2013-03-19 13:00:00,63.1,39.7,29.91,East,100,0.0,0.0,42,0.00,CLR,FEW,0.35,WeatherDisplay:10.37,2013-03-19 17:00:00,
2013-03-19 13:05:00,63.5,38.7,29.91,East,100,0.0,0.0,40,0.00,CLR,FEW,0.35,WeatherDisplay:10.37,2013-03-19 17:05:00,
2013-03-19 13:10:00,64.2,37.4,29.91,East,100,0.0,0.0,37,0.00,CLR,FEW,0.35,WeatherDisplay:10.37,2013-03-19 17:10:00,
2013-03-19 13:15:00,64.4,37.5,29.91,East,100,0.0,0.0,37,0.00,CLR,FEW,0.35,WeatherDisplay:10.37,2013-03-19 17:15:00,
2013-03-19 13:20:00,64.4,37.5,29.91,East,100,0.0,0.0,37,0.00,CLR,FEW,0.35,WeatherDisplay:10.37,2013-03-19 17:20:00,
2013-03-19 13:25:00,64.9,38.7,29.91,East,100,0.0,0.0,38,0.00,CLR,FEW,0.35,WeatherDisplay:10.37,2013-03-19 17:25:00,
2013-03-19 13:30:00,65.8,39.5,29.91,East,100,0.0,0.0,38,0.00,CLR,FEW,0.35,WeatherDisplay:10.37,2013-03-19 17:30:00,
2013-03-19 13:35:00,66.4,37.9,29.91,East,100,0.0,0.0,35,0.00,CLR,FEW,0.35,WeatherDisplay:10.37,2013-03-19 17:35:00,
2013-03-19 13:40:00,66.4,37.9,29.91,East,100,0.0,0.0,35,0.00,CLR,FEW,0.35,WeatherDisplay:10.37,2013-03-19 17:40:00,
2013-03-19 13:45:00,66.9,37.6,29.88,East,100,0.0,0.0,34,0.00,CLR,FEW,0.35,WeatherDisplay:10.37,2013-03-19 17:45:00,
2013-03-19 13:50:00,66.9,37.6,29.88,East,100,0.0,0.0,34,0.00,CLR,FEW,0.35,WeatherDisplay:10.37,2013-03-19 17:50:00,
2013-03-19 13:56:00,66.9,38.4,29.88,East,100,0.0,0.0,35,0.00,CLR,FEW,0.35,WeatherDisplay:10.37,2013-03-19 17:56:00,
2013-03-19 14:02:00,67.6,37.5,29.88,East,100,0.0,0.0,33,0.00,CLR,FEW,0.35,WeatherDisplay:10.37,2013-03-19 18:02:00,
2013-03-19 14:07:00,67.6,37.5,29.88,East,100,0.0,0.0,33,0.00,CLR,FEW,0.35,WeatherDisplay:10.37,2013-03-19 18:07:00,
2013-03-19 14:13:00,67.8,37.6,29.88,East,100,0.0,0.0,33,0.00,CLR,FEW,0.35,WeatherDisplay:10.37,2013-03-19 18:13:00,
2013-03-19 14:19:00,68.2,37.2,29.88,East,100,0.0,0.0,32,0.00,CLR,FEW,0.35,WeatherDisplay:10.37,2013-03-19 18:19:00,
2013-03-19 14:24:00,68.2,37.2,29.88,East,100,0.0,0.0,32,0.00,CLR,FEW,0.35,WeatherDisplay:10.37,2013-03-19 18:24:00,
2013-03-19 14:29:00,68.2,37.2,29.88,East,100,0.0,0.0,32,0.00,CLR,FEW,0.35,WeatherDisplay:10.37,2013-03-19 18:29:00,
2013-03-19 14:34:00,68.2,37.2,29.88,East,100,0.0,0.0,32,0.00,CLR,FEW,0.35,WeatherDisplay:10.37,2013-03-19 18:34:00,
2013-03-19 14:39:00,68.4,37.3,29.88,East,100,0.0,0.0,32,0.00,CLR,FEW,0.35,WeatherDisplay:10.37,2013-03-19 18:39:00,
2013-03-19 14:44:00,68.9,38.6,29.88,East,100,0.0,0.0,33,0.00,CLR,FEW,0.35,WeatherDisplay:10.37,2013-03-19 18:44:00,
2013-03-19 14:49:00,69.8,38.6,29.88,East,100,0.0,0.0,32,0.00,CLR,FEW,0.35,WeatherDisplay:10.37,2013-03-19 18:49:00,
2013-03-19 14:54:00,70.0,34.4,29.88,East,100,0.0,0.0,27,0.00,CLR,FEW,0.35,WeatherDisplay:10.37,2013-03-19 18:54:00,
2013-03-19 14:59:00,69.8,35.2,29.85,East,100,0.0,0.0,28,0.00,CLR,FEW,0.35,WeatherDisplay:10.37,2013-03-19 18:59:00,
2013-03-19 15:04:00,69.8,33.3,29.85,East,100,0.0,0.0,26,0.00,CLR,FEW,0.35,WeatherDisplay:10.37,2013-03-19 19:04:00,
2013-03-19 15:09:00,70.0,34.4,29.85,East,100,0.0,0.0,27,0.00,CLR,FEW,0.35,WeatherDisplay:10.37,2013-03-19 19:09:00,
2013-03-19 15:14:00,70.0,34.4,29.85,East,100,0.0,0.0,27,0.00,CLR,FEW,0.35,WeatherDisplay:10.37,2013-03-19 19:14:00,
2013-03-19 15:19:00,70.2,35.5,29.85,East,100,0.0,0.0,28,0.00,CLR,FEW,0.35,WeatherDisplay:10.37,2013-03-19 19:19:00,
2013-03-19 15:24:00,70.3,34.8,29.85,East,100,0.0,0.0,27,0.00,CLR,FEW,0.35,WeatherDisplay:10.37,2013-03-19 19:24:00,
2013-03-19 15:29:00,70.5,33.0,29.85,East,100,0.0,0.0,25,0.00,CLR,FEW,0.35,WeatherDisplay:10.37,2013-03-19 19:29:00,
2013-03-19 15:34:00,71.1,32.4,29.85,East,100,0.0,0.0,24,0.00,CLR,FEW,0.35,WeatherDisplay:10.37,2013-03-19 19:34:00,
2013-03-19 15:39:00,71.6,31.8,29.85,East,100,0.0,0.0,23,0.00,CLR,FEW,0.35,WeatherDisplay:10.37,2013-03-19 19:39:00,
2013-03-19 15:44:00,72.0,31.0,29.85,East,100,0.0,0.0,22,0.00,CLR,FEW,0.35,WeatherDisplay:10.37,2013-03-19 19:44:00,
2013-03-19 15:49:00,72.0,31.0,29.85,East,100,0.0,0.0,22,0.00,CLR,FEW,0.35,WeatherDisplay:10.37,2013-03-19 19:49:00,
2013-03-19 15:54:00,71.6,30.7,29.85,East,100,0.0,0.0,22,0.00,CLR,FEW,0.35,WeatherDisplay:10.37,2013-03-19 19:54:00,
2013-03-19 15:59:00,71.6,30.7,29.85,East,100,0.0,0.0,22,0.00,CLR,FEW,0.35,WeatherDisplay:10.37,2013-03-19 19:59:00,
2013-03-19 16:04:00,72.0,31.0,29.85,East,100,0.0,0.0,22,0.00,CLR,FEW,0.35,WeatherDisplay:10.37,2013-03-19 20:04:00,
2013-03-19 16:09:00,72.3,31.3,29.85,East,100,0.0,0.0,22,0.00,CLR,FEW,0.35,WeatherDisplay:10.37,2013-03-19 20:09:00,
2013-03-19 16:14:00,72.5,31.5,29.85,East,100,0.0,0.0,22,0.00,CLR,FEW,0.35,WeatherDisplay:10.37,2013-03-19 20:14:00,
2013-03-19 16:19:00,72.3,31.3,29.85,East,100,0.0,0.0,22,0.00,CLR,FEW,0.35,WeatherDisplay:10.37,2013-03-19 20:19:00,
2013-03-19 16:24:00,72.1,31.2,29.85,East,100,0.0,0.0,22,0.00,CLR,FEW,0.35,WeatherDisplay:10.37,2013-03-19 20:24:00,
2013-03-19 16:29:00,72.1,31.2,29.85,East,100,0.0,0.0,22,0.00,CLR,FEW,0.35,WeatherDisplay:10.37,2013-03-19 20:29:00,
2013-03-19 16:34:00,72.3,31.3,29.85,East,100,0.0,0.0,22,0.00,CLR,FEW,0.35,WeatherDisplay:10.37,2013-03-19 20:34:00,
2013-03-19 16:39:00,72.3,31.3,29.85,East,100,0.0,0.0,22,0.00,CLR,FEW,0.35,WeatherDisplay:10.37,2013-03-19 20:39:00,
2013-03-19 16:44:00,72.3,30.2,29.85,East,100,0.0,0.0,21,0.00,CLR,FEW,0.35,WeatherDisplay:10.37,2013-03-19 20:44:00,
2013-03-19 16:49:00,72.1,27.6,29.85,East,100,0.0,0.0,19,0.00,CLR,FEW,0.35,WeatherDisplay:10.37,2013-03-19 20:49:00,
2013-03-19 16:55:00,71.8,27.3,29.85,East,100,0.0,0.0,19,0.00,CLR,FEW,0.35,WeatherDisplay:10.37,2013-03-19 20:55:00,
2013-03-19 17:00:00,71.4,27.0,29.85,East,100,0.0,0.0,19,0.00,CLR,FEW,0.35,WeatherDisplay:10.37,2013-03-19 21:00:00,
2013-03-19 17:05:00,71.2,26.8,29.85,East,100,0.0,0.0,19,0.00,CLR,FEW,0.35,WeatherDisplay:10.37,2013-03-19 21:05:00,
2013-03-19 17:10:00,71.1,30.3,29.85,East,100,0.0,0.0,22,0.00,CLR,FEW,0.35,WeatherDisplay:10.37,2013-03-19 21:10:00,
2013-03-19 17:15:00,70.9,30.1,29.85,East,100,0.0,0.0,22,0.00,CLR,FEW,0.35,WeatherDisplay:10.37,2013-03-19 21:15:00,
2013-03-19 17:21:00,70.9,30.1,29.85,East,100,0.0,0.0,22,0.00,CLR,FEW,0.35,WeatherDisplay:10.37,2013-03-19 21:21:00,
2013-03-19 17:26:00,71.1,26.7,29.85,East,100,0.0,0.0,19,0.00,CLR,FEW,0.35,WeatherDisplay:10.37,2013-03-19 21:26:00,
2013-03-19 17:31:00,70.9,30.1,29.88,East,100,0.0,0.0,22,0.00,CLR,FEW,0.35,WeatherDisplay:10.37,2013-03-19 21:31:00,
2013-03-19 17:36:00,71.1,26.7,29.88,East,100,0.0,0.0,19,0.00,CLR,FEW,0.35,WeatherDisplay:10.37,2013-03-19 21:36:00,
2013-03-19 17:42:00,70.9,26.5,29.88,East,100,0.0,0.0,19,0.00,CLR,FEW,0.35,WeatherDisplay:10.37,2013-03-19 21:42:00,
2013-03-19 17:47:00,70.7,26.4,29.88,East,100,0.0,0.0,19,0.00,CLR,FEW,0.35,WeatherDisplay:10.37,2013-03-19 21:47:00,
2013-03-19 17:53:00,70.7,26.4,29.88,East,100,0.0,0.0,19,0.00,CLR,FEW,0.35,WeatherDisplay:10.37,2013-03-19 21:53:00,
2013-03-19 17:58:00,70.5,26.2,29.88,East,100,0.0,0.0,19,0.00,CLR,FEW,0.35,WeatherDisplay:10.37,2013-03-19 21:58:00,
2013-03-19 18:04:00,70.5,26.2,29.88,East,100,0.0,0.0,19,0.00,CLR,FEW,0.35,WeatherDisplay:10.37,2013-03-19 22:04:00,
2013-03-19 18:09:00,70.3,26.1,29.88,East,100,0.0,0.0,19,0.00,CLR,FEW,0.35,WeatherDisplay:10.37,2013-03-19 22:09:00,
2013-03-19 18:14:00,70.3,26.1,29.88,East,100,0.0,0.0,19,0.00,CLR,FEW,0.35,WeatherDisplay:10.37,2013-03-19 22:14:00,
2013-03-19 18:19:00,70.2,25.9,29.88,East,100,0.0,0.0,19,0.00,CLR,FEW,0.35,WeatherDisplay:10.37,2013-03-19 22:19:00,
2013-03-19 18:24:00,70.0,25.8,29.88,East,100,0.0,0.0,19,0.00,CLR,FEW,0.35,WeatherDisplay:10.37,2013-03-19 22:24:00,
2013-03-19 18:30:00,70.0,23.1,29.88,East,100,0.0,0.0,17,0.00,CLR,FEW,0.35,WeatherDisplay:10.37,2013-03-19 22:30:00,
2013-03-19 18:35:00,69.8,25.6,29.88,East,100,0.0,0.0,19,0.00,CLR,FEW,0.35,WeatherDisplay:10.37,2013-03-19 22:35:00,
2013-03-19 18:40:00,69.6,26.7,29.88,East,100,0.0,0.0,20,0.00,CLR,FEW,0.35,WeatherDisplay:10.37,2013-03-19 22:40:00,
2013-03-19 18:45:00,69.4,26.6,29.88,East,100,0.0,0.0,20,0.00,CLR,FEW,0.35,WeatherDisplay:10.37,2013-03-19 22:45:00,
2013-03-19 18:50:00,69.3,26.4,29.88,East,100,0.0,0.0,20,0.00,CLR,FEW,0.35,WeatherDisplay:10.37,2013-03-19 22:50:00,
2013-03-19 18:55:00,69.1,22.4,29.88,East,100,0.0,0.0,17,0.00,CLR,FEW,0.35,WeatherDisplay:10.37,2013-03-19 22:55:00,
2013-03-19 19:00:00,68.9,22.2,29.88,East,100,0.0,0.0,17,0.00,CLR,FEW,0.35,WeatherDisplay:10.37,2013-03-19 23:00:00,
2013-03-19 19:05:00,68.7,22.1,29.88,East,100,0.0,0.0,17,0.00,CLR,FEW,0.35,WeatherDisplay:10.37,2013-03-19 23:05:00,
2013-03-19 19:10:00,68.4,21.8,29.88,East,100,0.0,0.0,17,0.00,CLR,FEW,0.35,WeatherDisplay:10.37,2013-03-19 23:10:00,
2013-03-19 19:15:00,68.0,25.4,29.91,East,100,0.0,0.0,20,0.00,CLR,FEW,0.35,WeatherDisplay:10.37,2013-03-19 23:15:00,
2013-03-19 19:20:00,67.6,25.1,29.91,East,100,0.0,0.0,20,0.00,CLR,FEW,0.35,WeatherDisplay:10.37,2013-03-19 23:20:00,
2013-03-19 19:25:00,67.3,24.8,29.91,East,100,0.0,0.0,20,0.00,CLR,FEW,0.35,WeatherDisplay:10.37,2013-03-19 23:25:00,
2013-03-19 19:30:00,66.7,24.3,29.91,East,100,0.0,0.0,20,0.00,CLR,FEW,0.35,WeatherDisplay:10.37,2013-03-19 23:30:00,
2013-03-19 19:35:00,66.0,23.8,29.91,East,100,0.0,0.0,20,0.00,CLR,FEW,0.35,WeatherDisplay:10.37,2013-03-19 23:35:00,
2013-03-19 19:40:00,65.3,26.5,29.91,East,100,0.0,0.0,23,0.00,CLR,FEW,0.35,WeatherDisplay:10.37,2013-03-19 23:40:00,
2013-03-19 19:45:00,64.6,25.9,29.91,East,100,0.0,0.0,23,0.00,CLR,FEW,0.35,WeatherDisplay:10.37,2013-03-19 23:45:00,
2013-03-19 19:50:00,63.9,25.3,29.91,East,100,0.0,0.0,23,0.00,CLR,FEW,0.35,WeatherDisplay:10.37,2013-03-19 23:50:00,
2013-03-19 19:55:00,63.3,25.9,29.91,East,100,0.0,0.0,24,0.00,CLR,FEW,0.35,WeatherDisplay:10.37,2013-03-19 23:55:00,
2013-03-19 20:00:00,62.6,25.3,29.91,East,100,0.0,0.0,24,0.00,CLR,FEW,0.35,WeatherDisplay:10.37,2013-03-20 00:00:00,
2013-03-19 20:05:00,62.1,25.8,29.91,East,100,0.0,0.0,25,0.00,CLR,FEW,0.35,WeatherDisplay:10.37,2013-03-20 00:05:00,
2013-03-19 20:10:00,61.5,26.3,29.91,East,100,0.0,0.0,26,0.00,CLR,FEW,0.35,WeatherDisplay:10.37,2013-03-20 00:10:00,
2013-03-19 20:15:00,61.0,27.6,29.91,East,100,0.0,0.0,28,0.00,CLR,FEW,0.35,WeatherDisplay:10.37,2013-03-20 00:15:00,
2013-03-19 20:20:00,60.6,29.0,29.91,East,100,0.0,0.0,30,0.00,CLR,FEW,0.35,WeatherDisplay:10.37,2013-03-20 00:20:00,
2013-03-19 20:25:00,60.3,28.7,29.91,East,100,0.0,0.0,30,0.00,CLR,FEW,0.35,WeatherDisplay:10.37,2013-03-20 00:25:00,
2013-03-19 20:30:00,59.9,28.4,29.91,East,100,0.0,0.0,30,0.00,CLR,FEW,0.35,WeatherDisplay:10.37,2013-03-20 00:30:00,
2013-03-19 20:35:00,59.7,28.2,29.91,East,100,0.0,0.0,30,0.00,CLR,FEW,0.35,WeatherDisplay:10.37,2013-03-20 00:35:00,
2013-03-19 20:41:00,59.5,28.8,29.91,East,100,0.0,0.0,31,0.00,CLR,FEW,0.35,WeatherDisplay:10.37,2013-03-20 00:41:00,
2013-03-19 20:47:00,59.4,28.7,29.91,East,100,0.0,0.0,31,0.00,CLR,FEW,0.35,WeatherDisplay:10.37,2013-03-20 00:47:00,
2013-03-19 20:52:00,59.2,28.5,29.91,East,100,0.0,0.0,31,0.00,CLR,FEW,0.35,WeatherDisplay:10.37,2013-03-20 00:52:00,
2013-03-19 20:57:00,59.0,29.9,29.91,East,100,0.0,0.0,33,0.00,CLR,FEW,0.35,WeatherDisplay:10.37,2013-03-20 00:57:00,
2013-03-19 21:02:00,58.8,31.2,29.94,East,100,0.0,0.0,35,0.00,CLR,FEW,0.35,WeatherDisplay:10.37,2013-03-20 01:02:00,
2013-03-19 21:07:00,58.5,30.9,29.94,East,100,0.0,0.0,35,0.00,CLR,FEW,0.35,WeatherDisplay:10.37,2013-03-20 01:07:00,
2013-03-19 21:13:00,58.3,30.7,29.94,East,100,0.0,0.0,35,0.00,CLR,FEW,0.35,WeatherDisplay:10.37,2013-03-20 01:13:00,
2013-03-19 21:18:00,58.1,30.6,29.94,East,100,0.0,0.0,35,0.00,CLR,FEW,0.35,WeatherDisplay:10.37,2013-03-20 01:18:00,
2013-03-19 21:23:00,58.1,30.6,29.94,East,100,0.0,0.0,35,0.00,CLR,FEW,0.35,WeatherDisplay:10.37,2013-03-20 01:23:00,
2013-03-19 21:28:00,58.1,30.6,29.94,East,100,0.0,0.0,35,0.00,CLR,FEW,0.35,WeatherDisplay:10.37,2013-03-20 01:28:00,
2013-03-19 21:33:00,57.7,30.9,29.94,East,100,0.0,0.0,36,0.00,CLR,FEW,0.35,WeatherDisplay:10.37,2013-03-20 01:33:00,
2013-03-19 21:38:00,57.2,30.5,29.94,East,100,0.0,0.0,36,0.00,CLR,FEW,0.35,WeatherDisplay:10.37,2013-03-20 01:38:00,
2013-03-19 21:43:00,57.0,31.0,29.94,East,100,0.0,0.0,37,0.00,CLR,FEW,0.35,WeatherDisplay:10.37,2013-03-20 01:43:00,
2013-03-19 21:48:00,56.7,30.7,29.94,East,100,0.0,0.0,37,0.00,CLR,FEW,0.35,WeatherDisplay:10.37,2013-03-20 01:48:00,
2013-03-19 21:53:00,56.5,30.5,29.94,East,100,0.0,0.0,37,0.00,CLR,FEW,0.35,WeatherDisplay:10.37,2013-03-20 01:53:00,
2013-03-19 21:59:00,56.5,31.2,29.94,East,100,0.0,0.0,38,0.00,CLR,FEW,0.35,WeatherDisplay:10.37,2013-03-20 01:59:00,
2013-03-19 22:04:00,56.3,31.0,29.94,East,100,0.0,0.0,38,0.00,CLR,FEW,0.35,WeatherDisplay:10.37,2013-03-20 02:04:00,
2013-03-19 22:09:00,55.9,31.3,29.94,East,100,0.0,0.0,39,0.00,CLR,FEW,0.35,WeatherDisplay:10.37,2013-03-20 02:09:00,
2013-03-19 22:14:00,55.6,31.0,29.94,East,100,0.0,0.0,39,0.00,CLR,FEW,0.35,WeatherDisplay:10.37,2013-03-20 02:14:00,
2013-03-19 22:19:00,55.4,30.8,29.94,East,100,0.0,0.0,39,0.00,CLR,FEW,0.35,WeatherDisplay:10.37,2013-03-20 02:19:00,
2013-03-19 22:24:00,55.2,31.3,29.94,East,100,0.0,0.0,40,0.00,CLR,FEW,0.35,WeatherDisplay:10.37,2013-03-20 02:24:00,
2013-03-19 22:29:00,55.0,31.1,29.94,East,100,0.0,0.0,40,0.00,CLR,FEW,0.35,WeatherDisplay:10.37,2013-03-20 02:29:00,
2013-03-19 22:35:00,55.2,30.7,29.94,East,100,0.0,0.0,39,0.00,CLR,FEW,0.35,WeatherDisplay:10.37,2013-03-20 02:35:00,
2013-03-19 22:40:00,55.2,30.7,29.94,East,100,0.0,0.0,39,0.00,CLR,FEW,0.35,WeatherDisplay:10.37,2013-03-20 02:40:00,
2013-03-19 22:45:00,55.0,29.9,29.97,East,100,0.0,0.0,38,0.00,CLR,FEW,0.35,WeatherDisplay:10.37,2013-03-20 02:45:00,
2013-03-19 22:50:00,55.2,29.4,29.97,East,100,0.0,0.0,37,0.00,CLR,FEW,0.35,WeatherDisplay:10.37,2013-03-20 02:50:00,
2013-03-19 22:55:00,55.4,28.9,29.97,East,100,0.0,0.0,36,0.00,CLR,FEW,0.35,WeatherDisplay:10.37,2013-03-20 02:55:00,
2013-03-19 23:00:00,55.4,28.9,29.97,East,100,0.0,0.0,36,0.00,CLR,FEW,0.35,WeatherDisplay:10.37,2013-03-20 03:00:00,
2013-03-19 23:05:00,55.0,28.5,29.97,East,100,0.0,0.0,36,0.00,CLR,FEW,0.35,WeatherDisplay:10.37,2013-03-20 03:05:00,
2013-03-19 23:10:00,54.7,28.2,29.97,East,100,0.0,0.0,36,0.00,CLR,FEW,0.35,WeatherDisplay:10.37,2013-03-20 03:10:00,
2013-03-19 23:15:00,54.5,28.7,29.97,East,100,0.0,0.0,37,0.00,CLR,FEW,0.35,WeatherDisplay:10.37,2013-03-20 03:15:00,
2013-03-19 23:20:00,54.1,28.4,29.97,East,100,0.0,0.0,37,0.00,CLR,FEW,0.35,WeatherDisplay:10.37,2013-03-20 03:20:00,
2013-03-19 23:25:00,54.0,27.6,29.97,East,100,0.0,0.0,36,0.00,CLR,FEW,0.35,WeatherDisplay:10.37,2013-03-20 03:25:00,
2013-03-19 23:30:00,53.6,27.3,29.97,East,100,0.0,0.0,36,0.00,CLR,FEW,0.35,WeatherDisplay:10.37,2013-03-20 03:30:00,
2013-03-19 23:35:00,53.2,27.6,29.97,East,100,0.0,0.0,37,0.00,CLR,FEW,0.35,WeatherDisplay:10.37,2013-03-20 03:35:00,
2013-03-19 23:40:00,53.1,27.4,29.97,East,100,0.0,0.0,37,0.00,CLR,FEW,0.35,WeatherDisplay:10.37,2013-03-20 03:40:00,
2013-03-19 23:45:00,52.7,27.8,29.97,East,100,0.0,0.0,38,0.00,CLR,FEW,0.35,WeatherDisplay:10.37,2013-03-20 03:45:00,
2013-03-19 23:50:00,52.5,27.6,29.97,East,100,0.0,0.0,38,0.00,CLR,FEW,0.35,WeatherDisplay:10.37,2013-03-20 03:50:00,
2013-03-19 23:55:00,52.5,27.6,29.97,East,100,0.0,0.0,38,0.00,CLR,FEW,0.35,WeatherDisplay:10.37,2013-03-20 03:55:00,